Latest Weather Observations for Mornington Island Airport

IDQ60801

Issued at 6:32 am EST Wednesday 28 September 2016 (issued every 30 minutes, with the page automatically refreshed every 10 minutes)

About weather observations | Map of weather stations | Latest weather observations for QLD | Other Formats
Station Details ID: 029182 Name: MORNINGTON ISLAND AIRPORT Lat: -16.66 Lon: 139.17 Height: 9.52 m
Data from the previous 72 hours. | See also: Recent months at Mornington Island Airport
Date/Time
EST
Temp
°C
App
Temp
°C
Dew
Point
°C
Rel
Hum
%
Delta-T
°C
Wind Press
QNH
hPa
Press
MSL
hPa
Rain since
9am
mm
Dir  Spd
km/h
Gust
km/h
Spd
kts
Gust
kts
28/06:30am 25.7 26.3 16.8 58 5.5 SE 9 13 5 7 1010.3 1010.2 0.0
28/06:00am 26.2 25.9 16.4 54 6.0 SE 13 17 7 9 1009.8 1009.7 0.0
28/05:30am 26.4 26.0 16.3 53 6.2 SE 13 19 7 10 1009.6 1009.5 0.0
28/05:00am 26.9 25.2 14.6 46 7.4 SE 17 22 9 12 1009.4 1009.3 0.0
28/04:30am 26.8 25.9 15.8 51 6.7 SE 15 22 8 12 1009.3 1009.2 0.0
28/04:00am 26.2 26.5 17.0 57 5.7 SE 11 17 6 9 1009.4 1009.3 0.0
28/03:30am 27.1 26.7 16.1 51 6.8 SE 13 20 7 11 1009.5 1009.4 0.0
28/03:00am 25.5 28.5 21.2 77 2.8 SSE 7 11 4 6 1009.9 1009.8 0.0
28/02:30am 25.2 29.6 23.4 90 1.2 S 6 11 3 6 1009.9 1009.8 0.0
28/02:00am 25.5 30.0 23.9 91 1.1 S 7 9 4 5 1010.2 1010.1 0.0
28/01:30am 26.0 30.8 24.2 90 1.2 SSW 6 9 3 5 1010.3 1010.2 0.0
28/01:00am 26.3 30.8 24.0 87 1.6 SW 7 13 4 7 1010.6 1010.5 0.0
28/12:30am 26.5 30.4 23.6 84 2.0 SSW 9 19 5 10 1010.7 1010.6 0.0
28/12:00am 26.9 30.0 22.9 79 2.7 NNW 11 15 6 8 1010.2 1010.1 0.0
 
Date/Time
EST
Temp
°C
App
Temp
°C
Dew
Point
°C
Rel
Hum
%
Delta-T
°C
Wind Press
QNH
hPa
Press
MSL
hPa
Rain since
9am
mm
Dir  Spd
km/h
Gust
km/h
Spd
kts
Gust
kts
27/11:30pm 26.4 29.8 23.3 83 2.1 NNW 11 13 6 7 1010.5 1010.4 0.0
27/11:00pm 26.1 29.6 23.6 86 1.7 NNW 11 13 6 7 1010.7 1010.6 0.0
27/10:30pm 26.1 29.6 23.6 86 1.7 NNW 11 13 6 7 1010.9 1010.8 0.0
27/10:00pm 26.2 30.5 23.7 86 1.7 NNW 7 11 4 6 1011.1 1011.0 0.0
27/09:30pm 26.0 30.1 23.3 85 1.8 N 7 9 4 5 1011.0 1010.9 0.0
27/09:00pm 26.4 30.8 23.5 84 2.0 N 6 7 3 4 1011.0 1010.9 0.0
27/08:30pm 27.1 31.9 24.4 85 1.9 ENE 7 7 4 4 1010.9 1010.8 0.0
27/08:00pm 27.4 32.3 24.3 83 2.1 ENE 6 7 3 4 1010.8 1010.7 0.0
27/07:30pm 27.9 32.2 24.3 81 2.5 E 9 11 5 6 1010.6 1010.5 0.0
27/07:00pm 28.3 32.6 24.3 79 2.8 SE 9 13 5 7 1010.3 1010.2 0.0
27/06:30pm 28.8 32.9 23.9 75 3.4 SE 9 15 5 8 1010.0 1009.9 0.0
27/06:00pm 29.6 33.6 23.8 71 4.0 SE 9 15 5 8 1009.5 1009.4 0.0
27/05:30pm 30.6 35.1 24.0 68 4.6 SSE 7 11 4 6 1009.2 1009.1 0.0
27/05:00pm 30.4 34.0 23.8 68 4.6 S 11 19 6 10 1009.0 1008.9 0.0
27/04:30pm 30.4 34.0 23.8 68 4.6 SSE 11 17 6 9 1008.8 1008.7 0.0
27/04:00pm 29.5 32.3 23.7 71 4.0 SSE 15 22 8 12 1009.0 1008.9 0.0
27/03:30pm 30.4 33.2 23.6 67 4.7 SSE 15 20 8 11 1009.3 1009.2 0.0
27/03:00pm 31.8 35.1 23.9 63 5.5 S 13 19 7 10 1009.3 1009.2 0.0
27/02:30pm 30.7 33.0 23.4 65 5.0 SSE 17 26 9 14 1009.6 1009.5 0.0
27/02:00pm 31.2 34.5 23.8 64 5.1 SSE 13 19 7 10 1009.9 1009.8 0.0
27/01:30pm 30.6 32.5 22.7 62 5.4 SSE 17 26 9 14 1010.7 1010.6 0.0
27/01:00pm 30.6 32.4 22.5 62 5.5 SSE 17 22 9 12 1011.1 1011.0 0.0
27/12:30pm 30.3 32.0 23.0 65 5.0 SSE 19 28 10 15 1011.7 1011.6 0.0
27/12:00pm 32.6 35.7 23.5 58 6.3 S 13 26 7 14 1012.1 1012.0 0.0
27/11:30am 31.3 33.1 22.6 60 5.9 SSE 17 24 9 13 1012.3 1012.2 0.0
27/11:00am 30.1 31.2 22.3 63 5.3 SSE 20 30 11 16 1012.5 1012.4 0.0
27/10:55am 29.9 30.2 21.6 61 5.6 SSE 22 30 12 16 1012.5 1012.4 0.0
27/10:30am 34.9 34.3 16.7 34 11.6 NE 15 24 8 13 1012.0 1011.9 0.0
27/10:00am 33.4 32.4 16.7 36 10.6 ENE 17 24 9 13 1012.2 1012.1 0.0
27/09:30am 31.7 31.4 18.3 45 8.7 ENE 17 26 9 14 1012.1 1012.0 0.0
27/09:00am 30.6 30.1 18.7 49 7.7 SE 19 28 10 15 1012.4 1012.3 0.0
27/08:30am 29.2 29.2 18.9 53 6.7 SE 17 26 9 14 1012.4 1012.3 0.0
27/08:00am 28.7 28.9 20.2 60 5.6 SE 19 26 10 14 1012.2 1012.1 0.0
27/07:30am 27.9 28.1 19.4 60 5.5 SE 17 24 9 13 1011.7 1011.6 0.0
27/07:00am 26.9 27.2 19.5 64 4.8 SE 17 22 9 12 1011.2 1011.1 0.0
27/06:30am 25.9 26.7 19.1 66 4.4 SE 13 20 7 11 1010.7 1010.6 0.0
27/06:00am 24.6 26.7 20.9 80 2.4 SE 11 15 6 8 1010.4 1010.3 0.0
27/05:30am 23.7 26.2 21.0 85 1.8 SE 9 13 5 7 1010.0 1009.9 0.0
27/05:00am 23.2 25.8 20.5 85 1.8 SSE 7 11 4 6 1009.8 1009.7 0.0
27/04:30am 22.1 24.9 20.4 90 1.1 SSW 6 9 3 5 1009.5 1009.4 0.0
27/04:00am 22.2 26.0 20.1 88 1.4 CALM 0 0 0 0 1009.6 1009.5 0.0
27/03:30am 22.9 26.5 20.6 87 1.5 SW 2 9 1 5 1009.6 1009.5 0.0
27/03:00am 23.1 26.3 21.2 89 1.2 SW 6 7 3 4 1009.8 1009.7 0.0
27/02:30am 23.4 27.8 21.3 88 1.4 CALM 0 0 0 0 1010.2 1010.1 0.0
27/02:00am 24.1 27.5 21.6 86 1.7 S 6 7 3 4 1010.5 1010.4 0.0
27/01:30am 24.4 27.8 21.7 85 1.8 S 6 7 3 4 1010.6 1010.5 0.0
27/01:00am 25.0 28.5 22.1 84 1.9 SSW 7 11 4 6 1011.0 1010.9 0.0
27/12:30am 25.4 28.8 22.7 85 1.8 SW 9 22 5 12 1011.3 1011.2 0.0
27/12:00am 26.2 29.9 23.9 87 1.6 SW 11 19 6 10 1011.3 1011.2 0.0
 
Date/Time
EST
Temp
°C
App
Temp
°C
Dew
Point
°C
Rel
Hum
%
Delta-T
°C
Wind Press
QNH
hPa
Press
MSL
hPa
Rain since
9am
mm
Dir  Spd
km/h
Gust
km/h
Spd
kts
Gust
kts
26/11:30pm 26.8 30.2 24.1 85 1.9 W 13 17 7 9 1011.2 1011.1 0.0
26/11:00pm 26.6 30.1 23.5 83 2.1 NW 11 13 6 7 1011.1 1011.0 0.0
26/10:30pm 26.9 29.8 23.8 83 2.1 NW 15 17 8 9 1011.0 1010.9 0.0
26/10:00pm 26.9 29.6 23.4 81 2.4 NNW 15 19 8 10 1011.0 1010.9 0.0
26/09:30pm 27.1 29.6 23.8 82 2.3 NW 17 20 9 11 1011.0 1010.9 0.0
26/09:00pm 27.0 30.3 24.5 86 1.7 NNW 15 19 8 10 1010.8 1010.7 0.0
26/08:30pm 27.1 30.3 24.4 85 1.9 NW 15 19 8 10 1010.5 1010.4 0.0
26/08:00pm 27.3 30.5 24.4 84 2.0 NW 15 17 8 9 1010.5 1010.4 0.0
26/07:30pm 27.4 30.6 24.3 83 2.1 NW 15 17 8 9 1010.3 1010.2 0.0
26/07:00pm 27.7 30.5 23.7 79 2.8 NW 15 17 8 9 1010.0 1009.9 0.0
26/06:30pm 28.2 30.7 23.1 74 3.5 WNW 15 17 8 9 1009.7 1009.6 0.0
26/06:00pm 28.7 31.4 22.9 71 4.0 NW 13 15 7 8 1009.3 1009.2 0.0
26/05:30pm 29.2 32.6 23.4 71 4.0 W 11 15 6 8 1009.2 1009.1 0.0
26/05:00pm 29.9 33.0 23.6 69 4.4 W 13 17 7 9 1009.0 1008.9 0.0
26/04:30pm 30.6 32.3 23.0 64 5.2 WNW 19 22 10 12 1008.6 1008.5 0.0
26/04:24pm 30.8 32.8 22.9 62 5.4 NW 17 20 9 11 1008.6 1008.5 0.0
26/04:00pm 35.9 33.0 10.9 22 14.7 E 17 24 9 13 1008.6 1008.5 0.0
26/03:30pm 35.9 33.0 12.2 24 14.2 ESE 19 28 10 15 1008.8 1008.7 0.0
26/03:00pm 35.2 32.8 13.9 27 13.1 E 19 26 10 14 1008.9 1008.8 0.0
26/02:30pm 34.6 32.6 15.0 31 12.2 E 19 28 10 15 1009.2 1009.1 0.0
26/02:00pm 33.0 31.4 15.9 35 10.7 SE 19 26 10 14 1009.7 1009.6 0.0
26/01:30pm 32.2 30.9 17.3 41 9.5 SE 20 26 11 14 1010.1 1010.0 0.0
26/01:00pm 31.4 29.7 17.3 43 9.0 SE 22 30 12 16 1010.6 1010.5 0.0
26/12:30pm 31.2 29.9 18.2 46 8.4 SE 22 32 12 17 1011.0 1010.9 0.0
26/12:00pm 30.9 29.5 17.9 45 8.3 SE 22 30 12 16 1011.6 1011.5 0.0
26/11:30am 30.3 28.8 17.7 46 8.0 SE 22 30 12 16 1012.1 1012.0 0.0
26/11:00am 29.8 28.1 17.3 47 7.9 SE 22 30 12 16 1012.5 1012.4 0.0
26/10:30am 29.6 28.0 17.4 47 7.7 SE 22 32 12 17 1012.8 1012.7 0.0
26/10:00am 29.1 27.3 17.0 48 7.6 SE 22 32 12 17 1013.0 1012.9 0.0
26/09:30am 28.6 26.6 17.5 51 7.0 SE 24 35 13 19 1013.3 1013.2 0.0
26/09:00am 28.3 26.0 17.5 52 6.8 SE 26 37 14 20 1013.0 1012.9 0.0
26/08:30am 27.9 24.8 17.4 52 6.6 SE 30 41 16 22 1012.8 1012.7 0.0
26/08:00am 27.5 26.4 17.7 55 6.2 SE 20 32 11 17 1012.4 1012.3 0.0
26/07:30am 27.0 25.4 16.6 53 6.4 SE 20 32 11 17 1012.4 1012.3 0.0
26/07:00am 26.5 26.4 17.8 58 5.5 SE 15 24 8 13 1011.9 1011.8 0.0
26/06:30am 23.7 25.9 19.2 76 2.9 S 6 9 3 5 1011.5 1011.4 0.0
26/06:00am 23.4 25.6 19.3 78 2.6 S 6 7 3 4 1011.1 1011.0 0.0
26/05:30am 24.1 26.1 20.0 78 2.7 S 9 19 5 10 1010.7 1010.6 0.0
26/05:00am 23.6 26.3 21.3 87 1.5 S 9 13 5 7 1010.1 1010.0 0.0
26/04:30am 23.4 26.2 21.5 89 1.3 SSE 9 13 5 7 1010.0 1009.9 0.0
26/04:00am 23.6 26.4 21.5 88 1.4 S 9 13 5 7 1009.9 1009.8 0.0
26/03:30am 24.0 27.5 21.9 88 1.4 S 6 11 3 6 1009.8 1009.7 0.0
26/03:00am 26.2 29.4 23.1 83 2.1 SW 11 15 6 8 1009.6 1009.5 0.0
26/02:30am 26.3 29.7 23.4 84 2.0 WSW 11 17 6 9 1009.7 1009.6 0.0
26/02:00am 25.9 29.8 23.6 87 1.6 WSW 9 11 5 6 1009.8 1009.7 0.0
26/01:30am 23.8 27.1 21.5 87 1.5 NW 6 6 3 3 1009.8 1009.7 0.0
26/01:00am 23.8 26.9 21.1 85 1.8 NW 6 7 3 4 1010.0 1009.9 0.0
26/12:30am 24.8 28.2 22.7 88 1.4 NW 9 9 5 5 1010.3 1010.2 0.0
26/12:00am 24.8 28.7 22.9 89 1.3 NNW 7 7 4 4 1010.5 1010.4 0.0
 
Date/Time
EST
Temp
°C
App
Temp
°C
Dew
Point
°C
Rel
Hum
%
Delta-T
°C
Wind Press
QNH
hPa
Press
MSL
hPa
Rain since
9am
mm
Dir  Spd
km/h
Gust
km/h
Spd
kts
Gust
kts
25/11:30pm 24.5 28.1 22.4 88 1.4 NNW 7 9 4 5 1011.0 1010.9 0.0
25/11:00pm 24.7 28.7 22.8 89 1.3 NNW 6 7 3 4 1011.1 1011.0 0.0
25/10:30pm 24.8 28.2 22.7 88 1.4 NNW 9 11 5 6 1011.2 1011.1 0.0
25/10:00pm 25.0 27.7 22.9 88 1.4 NNW 13 15 7 8 1011.3 1011.2 0.0
25/09:30pm 24.8 28.1 22.5 87 1.5 WNW 9 9 5 5 1011.4 1011.3 0.0
25/09:00pm 25.2 28.4 22.3 84 1.9 N 9 11 5 6 1011.2 1011.1 0.0
25/08:30pm 25.8 29.0 22.3 81 2.3 N 9 11 5 6 1011.0 1010.9 0.0
25/08:00pm 26.4 29.6 22.3 78 2.8 N 9 11 5 6 1010.8 1010.7 0.0
25/07:30pm 26.7 29.9 22.3 77 3.0 N 9 11 5 6 1010.5 1010.4 0.0
25/07:00pm 27.0 30.2 22.4 76 3.1 N 9 13 5 7 1010.1 1010.0 0.0
25/06:30pm 27.7 29.8 22.4 73 3.6 NNW 15 19 8 10 1009.8 1009.7 0.0
25/06:00pm 28.4 29.2 21.7 67 4.5 NNW 20 24 11 13 1009.5 1009.4 0.0
25/05:30pm 31.7 29.9 9.3 25 12.6 SE 9 13 5 7 1009.2 1009.1 0.0
25/05:00pm 31.7 29.8 10.4 27 12.2 SSE 11 17 6 9 1009.0 1008.9 0.0
25/04:30pm 31.9 29.8 11.1 28 12.1 SE 13 19 7 10 1008.8 1008.7 0.0
25/04:00pm 31.8 29.1 10.5 27 12.3 SSE 15 22 8 12 1008.8 1008.7 0.0
25/03:30pm 31.6 29.3 11.9 30 11.6 SSE 15 24 8 13 1008.8 1008.7 0.0
25/03:00pm 31.4 29.0 12.7 32 11.1 SSE 17 28 9 15 1009.0 1008.9 0.0
25/02:30pm 32.0 28.9 11.7 28 11.9 SSE 19 30 10 16 1008.8 1008.7 0.0
25/02:00pm 31.7 28.4 11.5 29 11.8 SSE 20 30 11 16 1009.0 1008.9 0.0
25/01:30pm 32.2 28.6 9.7 25 12.8 SSE 19 32 10 17 1009.4 1009.3 0.0
25/01:00pm 32.5 30.2 11.6 28 12.3 SSE 15 24 8 13 1010.1 1010.0 0.0
25/12:30pm 31.5 31.2 15.5 38 9.9 SE 11 22 6 12 1010.6 1010.5 0.0
25/12:00pm 30.7 30.3 16.3 42 9.0 SE 13 20 7 11 1011.2 1011.1 0.0
25/11:30am 29.5 29.8 18.0 50 7.3 SSE 13 26 7 14 1011.7 1011.6 0.0
25/11:00am 28.6 29.4 20.6 62 5.3 SE 17 28 9 15 1012.1 1012.0 0.0
25/10:30am 28.5 28.5 20.2 60 5.5 SE 20 30 11 16 1012.5 1012.4 0.0
25/10:00am 27.6 28.0 20.9 67 4.4 SSE 20 35 11 19 1012.4 1012.3 0.0
25/09:30am 27.2 28.2 21.7 72 3.7 SSE 19 35 10 19 1012.6 1012.5 0.0
25/09:00am 27.5 30.6 22.2 73 3.6 W 9 11 5 6 1011.3 1011.2 0.0
25/08:30am 26.6 29.6 22.0 76 3.1 SW 9 11 5 6 1011.1 1011.0 0.0
25/08:00am 27.1 29.8 21.4 71 3.8 W 9 13 5 7 1010.5 1010.4 0.0
25/07:30am 26.5 29.0 21.7 75 3.2 W 11 15 6 8 1010.0 1009.9 0.0
25/07:00am 25.9 28.1 21.8 78 2.7 WNW 13 17 7 9 1009.5 1009.4 0.0

Other Formats:

Comma delimited format used in spreadsheet applications
http://www.bom.gov.au/fwo/IDQ60801/IDQ60801.94254.axf

JavaScript Object Notation format (JSON) in row-major order
http://www.bom.gov.au/fwo/IDQ60801/IDQ60801.94254.json